sensor_id;sensor_type;location;lat;lon;timestamp;temperature;humidity
12060;DHT22;6091;51.432;6.880;2023-02-01T00:01:04;21.20;34.00
12060;DHT22;6091;51.432;6.880;2023-02-01T00:03:32;21.20;34.00
12060;DHT22;6091;51.432;6.880;2023-02-01T00:05:59;21.10;33.90
12060;DHT22;6091;51.432;6.880;2023-02-01T00:08:27;21.10;33.90
12060;DHT22;6091;51.432;6.880;2023-02-01T00:11:05;21.10;33.90
12060;DHT22;6091;51.432;6.880;2023-02-01T00:13:35;21.10;34.00
12060;DHT22;6091;51.432;6.880;2023-02-01T00:16:17;21.10;33.90
12060;DHT22;6091;51.432;6.880;2023-02-01T00:18:47;21.10;34.00
12060;DHT22;6091;51.432;6.880;2023-02-01T00:21:18;21.10;33.90
12060;DHT22;6091;51.432;6.880;2023-02-01T00:23:46;21.10;33.90
12060;DHT22;6091;51.432;6.880;2023-02-01T00:26:15;21.10;33.90
12060;DHT22;6091;51.432;6.880;2023-02-01T00:28:45;21.10;34.00
12060;DHT22;6091;51.432;6.880;2023-02-01T00:31:12;21.00;33.90
12060;DHT22;6091;51.432;6.880;2023-02-01T00:33:39;21.10;34.00
12060;DHT22;6091;51.432;6.880;2023-02-01T00:36:08;21.00;33.90
12060;DHT22;6091;51.432;6.880;2023-02-01T00:38:37;21.10;34.00
12060;DHT22;6091;51.432;6.880;2023-02-01T00:41:11;21.00;34.00
12060;DHT22;6091;51.432;6.880;2023-02-01T00:43:41;21.00;34.10
12060;DHT22;6091;51.432;6.880;2023-02-01T00:46:09;21.00;34.00
12060;DHT22;6091;51.432;6.880;2023-02-01T00:48:37;21.00;34.00
12060;DHT22;6091;51.432;6.880;2023-02-01T00:51:13;21.00;34.00
12060;DHT22;6091;51.432;6.880;2023-02-01T00:53:42;21.00;34.10
12060;DHT22;6091;51.432;6.880;2023-02-01T00:56:10;21.00;34.00
12060;DHT22;6091;51.432;6.880;2023-02-01T00:58:37;20.90;33.90
12060;DHT22;6091;51.432;6.880;2023-02-01T01:01:08;20.90;34.00
12060;DHT22;6091;51.432;6.880;2023-02-01T01:03:40;20.90;34.00
12060;DHT22;6091;51.432;6.880;2023-02-01T01:06:11;20.90;34.00
12060;DHT22;6091;51.432;6.880;2023-02-01T01:08:40;20.90;34.00
12060;DHT22;6091;51.432;6.880;2023-02-01T01:11:11;20.90;34.00
12060;DHT22;6091;51.432;6.880;2023-02-01T01:13:43;20.90;34.00
12060;DHT22;6091;51.432;6.880;2023-02-01T01:16:12;20.90;34.60
12060;DHT22;6091;51.432;6.880;2023-02-01T01:18:40;20.90;34.10
12060;DHT22;6091;51.432;6.880;2023-02-01T01:21:09;20.90;34.10
12060;DHT22;6091;51.432;6.880;2023-02-01T01:23:40;20.90;34.10
12060;DHT22;6091;51.432;6.880;2023-02-01T01:26:09;20.90;34.10
12060;DHT22;6091;51.432;6.880;2023-02-01T01:28:40;20.90;34.20
12060;DHT22;6091;51.432;6.880;2023-02-01T01:31:12;20.90;34.10
12060;DHT22;6091;51.432;6.880;2023-02-01T01:33:40;20.90;34.20
12060;DHT22;6091;51.432;6.880;2023-02-01T01:36:09;20.90;34.20
12060;DHT22;6091;51.432;6.880;2023-02-01T01:38:42;20.90;34.20
12060;DHT22;6091;51.432;6.880;2023-02-01T01:41:14;20.80;34.70
12060;DHT22;6091;51.432;6.880;2023-02-01T01:43:57;20.80;34.20
12060;DHT22;6091;51.432;6.880;2023-02-01T01:46:31;20.80;34.20
12060;DHT22;6091;51.432;6.880;2023-02-01T01:51:46;20.80;34.30
12060;DHT22;6091;51.432;6.880;2023-02-01T01:54:21;20.80;34.20
12060;DHT22;6091;51.432;6.880;2023-02-01T01:56:55;20.70;34.10
12060;DHT22;6091;51.432;6.880;2023-02-01T01:59:27;20.80;34.20
12060;DHT22;6091;51.432;6.880;2023-02-01T02:01:55;20.70;34.10
12060;DHT22;6091;51.432;6.880;2023-02-01T02:04:23;20.80;34.30
12060;DHT22;6091;51.432;6.880;2023-02-01T02:07:08;20.70;34.10
12060;DHT22;6091;51.432;6.880;2023-02-01T02:09:42;20.80;34.30
12060;DHT22;6091;51.432;6.880;2023-02-01T02:12:25;20.70;34.10
12060;DHT22;6091;51.432;6.880;2023-02-01T02:14:52;20.70;34.10
12060;DHT22;6091;51.432;6.880;2023-02-01T02:17:44;20.70;34.10
12060;DHT22;6091;51.432;6.880;2023-02-01T02:26:50;20.70;34.20
12060;DHT22;6091;51.432;6.880;2023-02-01T02:29:35;20.70;34.30
12060;DHT22;6091;51.432;6.880;2023-02-01T02:35:37;20.70;34.30
12060;DHT22;6091;51.432;6.880;2023-02-01T02:38:30;20.60;34.10
12060;DHT22;6091;51.432;6.880;2023-02-01T02:41:09;20.60;34.30
12060;DHT22;6091;51.432;6.880;2023-02-01T02:44:13;20.60;34.20
12060;DHT22;6091;51.432;6.880;2023-02-01T02:47:10;20.60;34.20
12060;DHT22;6091;51.432;6.880;2023-02-01T02:53:18;20.60;34.30
12060;DHT22;6091;51.432;6.880;2023-02-01T02:56:12;20.60;34.30
12060;DHT22;6091;51.432;6.880;2023-02-01T02:59:01;20.60;34.20
12060;DHT22;6091;51.432;6.880;2023-02-01T03:01:49;20.50;34.20
12060;DHT22;6091;51.432;6.880;2023-02-01T03:04:35;20.50;34.20
12060;DHT22;6091;51.432;6.880;2023-02-01T03:07:53;20.50;34.20
12060;DHT22;6091;51.432;6.880;2023-02-01T03:10:51;20.50;34.40
12060;DHT22;6091;51.432;6.880;2023-02-01T03:13:43;20.50;34.40
12060;DHT22;6091;51.432;6.880;2023-02-01T03:16:26;20.50;34.30
12060;DHT22;6091;51.432;6.880;2023-02-01T03:19:01;20.40;34.30
12060;DHT22;6091;51.432;6.880;2023-02-01T03:24:32;20.40;34.40
12060;DHT22;6091;51.432;6.880;2023-02-01T03:27:20;20.40;34.90
12060;DHT22;6091;51.432;6.880;2023-02-01T03:32:39;20.40;34.40
12060;DHT22;6091;51.432;6.880;2023-02-01T03:40:57;20.40;34.30
12060;DHT22;6091;51.432;6.880;2023-02-01T03:43:27;20.30;34.30
12060;DHT22;6091;51.432;6.880;2023-02-01T03:46:03;20.30;34.30
12060;DHT22;6091;51.432;6.880;2023-02-01T03:48:36;20.30;34.30
12060;DHT22;6091;51.432;6.880;2023-02-01T03:51:05;20.30;34.30
12060;DHT22;6091;51.432;6.880;2023-02-01T03:53:35;20.30;34.30
12060;DHT22;6091;51.432;6.880;2023-02-01T03:56:04;20.30;34.30
12060;DHT22;6091;51.432;6.880;2023-02-01T03:58:32;20.30;34.30
12060;DHT22;6091;51.432;6.880;2023-02-01T04:01:00;20.30;34.30
12060;DHT22;6091;51.432;6.880;2023-02-01T04:03:28;20.30;34.40
12060;DHT22;6091;51.432;6.880;2023-02-01T04:05:55;20.30;34.30
12060;DHT22;6091;51.432;6.880;2023-02-01T04:08:23;20.30;34.40
12060;DHT22;6091;51.432;6.880;2023-02-01T04:10:50;20.30;34.40
12060;DHT22;6091;51.432;6.880;2023-02-01T04:13:17;20.30;34.40
12060;DHT22;6091;51.432;6.880;2023-02-01T04:15:44;20.30;34.40
12060;DHT22;6091;51.432;6.880;2023-02-01T04:18:16;20.30;34.40
12060;DHT22;6091;51.432;6.880;2023-02-01T04:20:43;20.30;34.40
12060;DHT22;6091;51.432;6.880;2023-02-01T04:23:11;20.30;34.40
12060;DHT22;6091;51.432;6.880;2023-02-01T04:25:38;20.20;34.30
12060;DHT22;6091;51.432;6.880;2023-02-01T04:28:05;20.20;34.30
12060;DHT22;6091;51.432;6.880;2023-02-01T04:30:33;20.20;34.30
12060;DHT22;6091;51.432;6.880;2023-02-01T04:33:00;20.20;34.40
12060;DHT22;6091;51.432;6.880;2023-02-01T04:35:30;20.20;34.30
12060;DHT22;6091;51.432;6.880;2023-02-01T04:37:57;20.20;34.40
12060;DHT22;6091;51.432;6.880;2023-02-01T04:40:24;20.20;34.40
12060;DHT22;6091;51.432;6.880;2023-02-01T04:42:51;20.20;34.40
12060;DHT22;6091;51.432;6.880;2023-02-01T04:45:18;20.20;34.40
12060;DHT22;6091;51.432;6.880;2023-02-01T04:47:45;20.20;34.40
12060;DHT22;6091;51.432;6.880;2023-02-01T04:50:12;20.20;34.50
12060;DHT22;6091;51.432;6.880;2023-02-01T04:52:39;20.10;34.40
12060;DHT22;6091;51.432;6.880;2023-02-01T04:55:07;20.20;34.50
12060;DHT22;6091;51.432;6.880;2023-02-01T04:57:34;20.10;34.40
12060;DHT22;6091;51.432;6.880;2023-02-01T05:00:02;20.20;34.50
12060;DHT22;6091;51.432;6.880;2023-02-01T05:02:29;20.10;34.40
12060;DHT22;6091;51.432;6.880;2023-02-01T05:04:56;20.10;34.50
12060;DHT22;6091;51.432;6.880;2023-02-01T05:07:23;20.10;34.40
12060;DHT22;6091;51.432;6.880;2023-02-01T05:09:50;20.10;34.40
12060;DHT22;6091;51.432;6.880;2023-02-01T05:12:17;20.10;34.50
12060;DHT22;6091;51.432;6.880;2023-02-01T05:15:03;20.10;34.40
12060;DHT22;6091;51.432;6.880;2023-02-01T05:17:30;20.10;34.50
12060;DHT22;6091;51.432;6.880;2023-02-01T05:19:57;20.10;34.50
12060;DHT22;6091;51.432;6.880;2023-02-01T05:22:25;20.10;34.50
12060;DHT22;6091;51.432;6.880;2023-02-01T05:24:52;20.10;34.50
12060;DHT22;6091;51.432;6.880;2023-02-01T05:27:19;20.10;34.50
12060;DHT22;6091;51.432;6.880;2023-02-01T05:29:46;20.10;34.50
12060;DHT22;6091;51.432;6.880;2023-02-01T05:32:13;20.10;34.50
12060;DHT22;6091;51.432;6.880;2023-02-01T05:34:48;20.10;34.50
12060;DHT22;6091;51.432;6.880;2023-02-01T05:37:15;20.10;34.60
12060;DHT22;6091;51.432;6.880;2023-02-01T05:39:42;20.10;34.50
12060;DHT22;6091;51.432;6.880;2023-02-01T05:42:09;20.00;34.50
12060;DHT22;6091;51.432;6.880;2023-02-01T05:44:36;20.00;34.50
12060;DHT22;6091;51.432;6.880;2023-02-01T05:47:03;20.00;34.50
12060;DHT22;6091;51.432;6.880;2023-02-01T05:49:31;20.10;34.60
12060;DHT22;6091;51.432;6.880;2023-02-01T05:51:58;20.00;34.50
12060;DHT22;6091;51.432;6.880;2023-02-01T05:54:26;20.00;34.50
12060;DHT22;6091;51.432;6.880;2023-02-01T05:56:53;20.00;34.50
12060;DHT22;6091;51.432;6.880;2023-02-01T05:59:20;20.00;34.50
12060;DHT22;6091;51.432;6.880;2023-02-01T06:01:47;20.00;34.60
12060;DHT22;6091;51.432;6.880;2023-02-01T06:04:14;20.00;34.60
12060;DHT22;6091;51.432;6.880;2023-02-01T06:06:41;20.00;34.60
12060;DHT22;6091;51.432;6.880;2023-02-01T06:09:08;18.80;33.60
12060;DHT22;6091;51.432;6.880;2023-02-01T06:11:35;20.00;34.60
12060;DHT22;6091;51.432;6.880;2023-02-01T06:14:02;20.00;34.60
12060;DHT22;6091;51.432;6.880;2023-02-01T06:16:29;20.00;34.60
12060;DHT22;6091;51.432;6.880;2023-02-01T06:18:56;19.90;34.60
12060;DHT22;6091;51.432;6.880;2023-02-01T06:21:23;19.90;34.60
12060;DHT22;6091;51.432;6.880;2023-02-01T06:23:52;19.90;34.60
12060;DHT22;6091;51.432;6.880;2023-02-01T06:26:20;19.90;34.60
12060;DHT22;6091;51.432;6.880;2023-02-01T06:28:47;20.00;34.70
12060;DHT22;6091;51.432;6.880;2023-02-01T06:31:17;19.90;34.60
12060;DHT22;6091;51.432;6.880;2023-02-01T06:33:44;19.90;34.60
12060;DHT22;6091;51.432;6.880;2023-02-01T06:36:13;19.90;34.60
12060;DHT22;6091;51.432;6.880;2023-02-01T06:38:42;19.90;34.70
12060;DHT22;6091;51.432;6.880;2023-02-01T06:41:09;20.00;35.00
12060;DHT22;6091;51.432;6.880;2023-02-01T06:43:36;20.00;35.10
12060;DHT22;6091;51.432;6.880;2023-02-01T06:46:07;20.00;35.30
12060;DHT22;6091;51.432;6.880;2023-02-01T06:48:38;20.10;35.50
12060;DHT22;6091;51.432;6.880;2023-02-01T06:51:05;20.30;35.70
12060;DHT22;6091;51.432;6.880;2023-02-01T06:53:32;20.40;35.80
12060;DHT22;6091;51.432;6.880;2023-02-01T06:56:04;20.60;35.90
12060;DHT22;6091;51.432;6.880;2023-02-01T06:58:32;20.70;35.90
12060;DHT22;6091;51.432;6.880;2023-02-01T07:01:08;20.90;35.80
12060;DHT22;6091;51.432;6.880;2023-02-01T07:03:38;21.10;35.80
12060;DHT22;6091;51.432;6.880;2023-02-01T07:06:07;21.20;35.80
12060;DHT22;6091;51.432;6.880;2023-02-01T07:08:37;21.40;35.80
12060;DHT22;6091;51.432;6.880;2023-02-01T07:11:08;21.60;35.80
12060;DHT22;6091;51.432;6.880;2023-02-01T07:13:37;21.70;35.60
12060;DHT22;6091;51.432;6.880;2023-02-01T07:16:09;21.80;35.70
12060;DHT22;6091;51.432;6.880;2023-02-01T07:18:39;22.00;35.80
12060;DHT22;6091;51.432;6.880;2023-02-01T07:21:06;22.10;35.70
12060;DHT22;6091;51.432;6.880;2023-02-01T07:23:34;22.20;35.80
12060;DHT22;6091;51.432;6.880;2023-02-01T07:26:03;22.30;35.70
12060;DHT22;6091;51.432;6.880;2023-02-01T07:28:34;22.50;35.80
12060;DHT22;6091;51.432;6.880;2023-02-01T07:31:07;22.60;35.60
12060;DHT22;6091;51.432;6.880;2023-02-01T07:33:34;22.70;35.60
12060;DHT22;6091;51.432;6.880;2023-02-01T07:36:04;22.80;35.60
12060;DHT22;6091;51.432;6.880;2023-02-01T07:38:33;22.90;35.60
12060;DHT22;6091;51.432;6.880;2023-02-01T07:41:02;22.90;35.40
12060;DHT22;6091;51.432;6.880;2023-02-01T07:43:31;23.00;35.60
12060;DHT22;6091;51.432;6.880;2023-02-01T07:46:03;23.10;35.60
12060;DHT22;6091;51.432;6.880;2023-02-01T07:48:33;23.20;35.60
12060;DHT22;6091;51.432;6.880;2023-02-01T07:51:10;23.30;35.40
12060;DHT22;6091;51.432;6.880;2023-02-01T07:53:39;23.40;35.20
12060;DHT22;6091;51.432;6.880;2023-02-01T07:56:18;23.40;35.40
12060;DHT22;6091;51.432;6.880;2023-02-01T07:58:48;23.60;35.30
12060;DHT22;6091;51.432;6.880;2023-02-01T08:01:22;23.70;35.30
12060;DHT22;6091;51.432;6.880;2023-02-01T08:03:56;23.80;35.20
12060;DHT22;6091;51.432;6.880;2023-02-01T08:06:33;23.80;34.90
12060;DHT22;6091;51.432;6.880;2023-02-01T08:09:01;23.80;35.20
12060;DHT22;6091;51.432;6.880;2023-02-01T08:11:30;23.90;35.20
12060;DHT22;6091;51.432;6.880;2023-02-01T08:13:58;24.00;35.10
12060;DHT22;6091;51.432;6.880;2023-02-01T08:16:25;24.10;34.70
12060;DHT22;6091;51.432;6.880;2023-02-01T08:18:55;24.10;34.70
12060;DHT22;6091;51.432;6.880;2023-02-01T08:21:29;24.20;34.40
12060;DHT22;6091;51.432;6.880;2023-02-01T08:24:05;24.20;33.50
12060;DHT22;6091;51.432;6.880;2023-02-01T08:26:40;24.20;32.80
12060;DHT22;6091;51.432;6.880;2023-02-01T08:29:09;24.10;32.70
12060;DHT22;6091;51.432;6.880;2023-02-01T08:31:40;24.00;33.10
12060;DHT22;6091;51.432;6.880;2023-02-01T08:34:13;23.80;33.30
12060;DHT22;6091;51.432;6.880;2023-02-01T08:36:40;23.70;34.10
12060;DHT22;6091;51.432;6.880;2023-02-01T08:39:09;23.70;33.70
12060;DHT22;6091;51.432;6.880;2023-02-01T08:41:37;23.60;33.90
12060;DHT22;6091;51.432;6.880;2023-02-01T08:44:10;23.60;34.00
12060;DHT22;6091;51.432;6.880;2023-02-01T08:46:42;23.60;34.10
12060;DHT22;6091;51.432;6.880;2023-02-01T08:49:09;23.70;34.10
12060;DHT22;6091;51.432;6.880;2023-02-01T08:51:36;23.70;34.20
12060;DHT22;6091;51.432;6.880;2023-02-01T08:54:03;23.80;34.40
12060;DHT22;6091;51.432;6.880;2023-02-01T08:56:37;24.00;34.40
12060;DHT22;6091;51.432;6.880;2023-02-01T08:59:06;23.90;34.20
12060;DHT22;6091;51.432;6.880;2023-02-01T09:01:37;24.10;34.40
12060;DHT22;6091;51.432;6.880;2023-02-01T09:04:07;24.10;34.30
12060;DHT22;6091;51.432;6.880;2023-02-01T09:06:34;24.10;34.30
12060;DHT22;6091;51.432;6.880;2023-02-01T09:09:00;24.10;34.40
12060;DHT22;6091;51.432;6.880;2023-02-01T09:11:37;24.20;34.50
12060;DHT22;6091;51.432;6.880;2023-02-01T09:14:04;24.40;34.70
12060;DHT22;6091;51.432;6.880;2023-02-01T09:16:34;24.40;34.50
12060;DHT22;6091;51.432;6.880;2023-02-01T09:19:04;24.60;34.70
12060;DHT22;6091;51.432;6.880;2023-02-01T09:21:51;24.50;34.20
12060;DHT22;6091;51.432;6.880;2023-02-01T09:24:19;24.50;34.20
12060;DHT22;6091;51.432;6.880;2023-02-01T09:26:48;24.60;34.20
12060;DHT22;6091;51.432;6.880;2023-02-01T09:29:16;24.70;34.20
12060;DHT22;6091;51.432;6.880;2023-02-01T09:31:45;24.60;34.20
12060;DHT22;6091;51.432;6.880;2023-02-01T09:34:29;24.80;34.30
12060;DHT22;6091;51.432;6.880;2023-02-01T09:36:56;24.90;34.30
12060;DHT22;6091;51.432;6.880;2023-02-01T09:39:23;24.80;34.20
12060;DHT22;6091;51.432;6.880;2023-02-01T09:47:26;24.80;33.90
12060;DHT22;6091;51.432;6.880;2023-02-01T09:50:10;24.80;34.00
12060;DHT22;6091;51.432;6.880;2023-02-01T09:55:48;24.80;33.90
12060;DHT22;6091;51.432;6.880;2023-02-01T09:58:25;24.90;33.90
12060;DHT22;6091;51.432;6.880;2023-02-01T10:00:59;24.80;33.90
12060;DHT22;6091;51.432;6.880;2023-02-01T10:03:33;24.60;33.90
12060;DHT22;6091;51.432;6.880;2023-02-01T10:06:33;24.70;34.20
12060;DHT22;6091;51.432;6.880;2023-02-01T10:09:16;24.70;34.00
12060;DHT22;6091;51.432;6.880;2023-02-01T10:18:00;24.80;34.30
12060;DHT22;6091;51.432;6.880;2023-02-01T10:29:14;24.90;34.30
12060;DHT22;6091;51.432;6.880;2023-02-01T10:31:45;25.00;34.40
12060;DHT22;6091;51.432;6.880;2023-02-01T10:34:26;25.00;34.40
12060;DHT22;6091;51.432;6.880;2023-02-01T10:37:33;25.10;34.20
12060;DHT22;6091;51.432;6.880;2023-02-01T10:40:17;25.20;34.20
12060;DHT22;6091;51.432;6.880;2023-02-01T10:42:51;25.30;34.20
12060;DHT22;6091;51.432;6.880;2023-02-01T10:45:26;25.20;34.00
12060;DHT22;6091;51.432;6.880;2023-02-01T10:47:56;25.30;34.30
12060;DHT22;6091;51.432;6.880;2023-02-01T10:50:44;25.30;34.20
12060;DHT22;6091;51.432;6.880;2023-02-01T10:54:19;25.30;33.90
12060;DHT22;6091;51.432;6.880;2023-02-01T10:56:29;25.40;33.80
12060;DHT22;6091;51.432;6.880;2023-02-01T10:59:05;25.40;33.90
12060;DHT22;6091;51.432;6.880;2023-02-01T11:01:45;25.40;33.60
12060;DHT22;6091;51.432;6.880;2023-02-01T11:04:19;25.40;33.60
12060;DHT22;6091;51.432;6.880;2023-02-01T11:06:52;25.30;33.50
12060;DHT22;6091;51.432;6.880;2023-02-01T11:09:25;25.30;33.40
12060;DHT22;6091;51.432;6.880;2023-02-01T11:12:01;25.20;33.10
12060;DHT22;6091;51.432;6.880;2023-02-01T11:14:39;25.20;33.20
12060;DHT22;6091;51.432;6.880;2023-02-01T11:17:28;25.20;33.40
12060;DHT22;6091;51.432;6.880;2023-02-01T11:20:04;25.10;33.20
12060;DHT22;6091;51.432;6.880;2023-02-01T11:22:46;25.00;33.40
12060;DHT22;6091;51.432;6.880;2023-02-01T11:25:17;24.90;33.50
12060;DHT22;6091;51.432;6.880;2023-02-01T11:27:45;25.00;33.50
12060;DHT22;6091;51.432;6.880;2023-02-01T11:30:36;25.00;33.60
12060;DHT22;6091;51.432;6.880;2023-02-01T11:33:17;25.00;33.70
12060;DHT22;6091;51.432;6.880;2023-02-01T11:35:49;25.00;33.60
12060;DHT22;6091;51.432;6.880;2023-02-01T11:38:30;24.90;33.70
12060;DHT22;6091;51.432;6.880;2023-02-01T11:44:00;24.90;33.90
12060;DHT22;6091;51.432;6.880;2023-02-01T11:46:42;24.90;34.10
12060;DHT22;6091;51.432;6.880;2023-02-01T11:49:25;24.90;34.10
12060;DHT22;6091;51.432;6.880;2023-02-01T11:52:08;25.00;34.10
12060;DHT22;6091;51.432;6.880;2023-02-01T11:55:18;25.00;34.00
12060;DHT22;6091;51.432;6.880;2023-02-01T12:13:31;25.20;32.90
12060;DHT22;6091;51.432;6.880;2023-02-01T12:16:34;25.30;33.00
12060;DHT22;6091;51.432;6.880;2023-02-01T12:30:54;25.20;32.70
12060;DHT22;6091;51.432;6.880;2023-02-01T12:36:51;25.20;32.80
12060;DHT22;6091;51.432;6.880;2023-02-01T12:42:14;25.20;32.90
12060;DHT22;6091;51.432;6.880;2023-02-01T12:45:10;25.10;32.80
12060;DHT22;6091;51.432;6.880;2023-02-01T12:47:47;25.10;32.80
12060;DHT22;6091;51.432;6.880;2023-02-01T12:50:37;25.00;32.90
12060;DHT22;6091;51.432;6.880;2023-02-01T12:53:29;25.00;32.80
12060;DHT22;6091;51.432;6.880;2023-02-01T12:56:28;25.00;32.90
12060;DHT22;6091;51.432;6.880;2023-02-01T12:59:28;25.00;32.90
12060;DHT22;6091;51.432;6.880;2023-02-01T13:02:12;24.90;32.90
12060;DHT22;6091;51.432;6.880;2023-02-01T13:04:52;24.90;32.90
12060;DHT22;6091;51.432;6.880;2023-02-01T13:07:38;24.90;33.00
12060;DHT22;6091;51.432;6.880;2023-02-01T13:10:47;24.80;32.90
12060;DHT22;6091;51.432;6.880;2023-02-01T13:13:31;24.80;32.90
12060;DHT22;6091;51.432;6.880;2023-02-01T13:16:16;24.90;33.10
12060;DHT22;6091;51.432;6.880;2023-02-01T13:19:22;24.90;33.10
12060;DHT22;6091;51.432;6.880;2023-02-01T13:22:10;24.90;33.10
12060;DHT22;6091;51.432;6.880;2023-02-01T13:25:04;25.00;33.20
12060;DHT22;6091;51.432;6.880;2023-02-01T13:27:43;25.00;33.10
12060;DHT22;6091;51.432;6.880;2023-02-01T13:30:26;25.00;33.10
12060;DHT22;6091;51.432;6.880;2023-02-01T13:39:59;25.20;33.00
12060;DHT22;6091;51.432;6.880;2023-02-01T13:42:59;25.20;32.90
12060;DHT22;6091;51.432;6.880;2023-02-01T13:45:35;25.20;32.90
12060;DHT22;6091;51.432;6.880;2023-02-01T13:48:19;25.30;33.00
12060;DHT22;6091;51.432;6.880;2023-02-01T13:50:56;25.60;33.10
12060;DHT22;6091;51.432;6.880;2023-02-01T13:53:36;25.20;32.90
12060;DHT22;6091;51.432;6.880;2023-02-01T13:56:16;25.20;32.80
12060;DHT22;6091;51.432;6.880;2023-02-01T13:58:50;25.20;32.80
12060;DHT22;6091;51.432;6.880;2023-02-01T14:04:00;25.10;32.70
12060;DHT22;6091;51.432;6.880;2023-02-01T14:09:17;25.10;32.80
12060;DHT22;6091;51.432;6.880;2023-02-01T14:11:50;25.10;32.70
12060;DHT22;6091;51.432;6.880;2023-02-01T14:19:25;25.00;32.70
12060;DHT22;6091;51.432;6.880;2023-02-01T14:21:56;24.90;32.80
12060;DHT22;6091;51.432;6.880;2023-02-01T14:24:33;24.90;32.80
12060;DHT22;6091;51.432;6.880;2023-02-01T14:27:14;24.90;32.80
12060;DHT22;6091;51.432;6.880;2023-02-01T14:29:59;24.90;32.90
12060;DHT22;6091;51.432;6.880;2023-02-01T14:32:34;24.90;33.50
12060;DHT22;6091;51.432;6.880;2023-02-01T14:35:24;24.80;32.90
12060;DHT22;6091;51.432;6.880;2023-02-01T14:37:59;24.90;33.10
12060;DHT22;6091;51.432;6.880;2023-02-01T14:40:35;24.90;33.10
12060;DHT22;6091;51.432;6.880;2023-02-01T14:43:03;24.90;33.20
12060;DHT22;6091;51.432;6.880;2023-02-01T14:50:34;25.00;33.10
12060;DHT22;6091;51.432;6.880;2023-02-01T14:59:01;25.10;33.10
12060;DHT22;6091;51.432;6.880;2023-02-01T15:01:39;25.10;32.90
12060;DHT22;6091;51.432;6.880;2023-02-01T15:04:19;25.20;33.10
12060;DHT22;6091;51.432;6.880;2023-02-01T15:06:48;25.10;33.10
12060;DHT22;6091;51.432;6.880;2023-02-01T15:09:38;25.20;33.00
12060;DHT22;6091;51.432;6.880;2023-02-01T15:15:13;25.20;32.80
12060;DHT22;6091;51.432;6.880;2023-02-01T15:17:56;25.20;32.70
12060;DHT22;6091;51.432;6.880;2023-02-01T15:20:32;25.20;32.70
12060;DHT22;6091;51.432;6.880;2023-02-01T15:23:03;25.20;32.70
12060;DHT22;6091;51.432;6.880;2023-02-01T15:25:38;25.20;32.80
12060;DHT22;6091;51.432;6.880;2023-02-01T15:28:09;25.20;32.80
12060;DHT22;6091;51.432;6.880;2023-02-01T15:33:30;25.20;32.70
12060;DHT22;6091;51.432;6.880;2023-02-01T15:36:20;25.10;32.70
12060;DHT22;6091;51.432;6.880;2023-02-01T15:39:14;25.10;32.50
12060;DHT22;6091;51.432;6.880;2023-02-01T15:42:08;25.10;32.70
12060;DHT22;6091;51.432;6.880;2023-02-01T15:44:44;25.00;32.60
12060;DHT22;6091;51.432;6.880;2023-02-01T15:47:20;25.00;32.70
12060;DHT22;6091;51.432;6.880;2023-02-01T15:49:54;25.00;32.60
12060;DHT22;6091;51.432;6.880;2023-02-01T15:52:39;24.90;32.70
12060;DHT22;6091;51.432;6.880;2023-02-01T15:57:47;24.90;32.80
12060;DHT22;6091;51.432;6.880;2023-02-01T16:00:23;24.90;32.90
12060;DHT22;6091;51.432;6.880;2023-02-01T16:03:03;24.90;33.00
12060;DHT22;6091;51.432;6.880;2023-02-01T16:05:37;24.90;33.00
12060;DHT22;6091;51.432;6.880;2023-02-01T16:08:14;24.90;33.00
12060;DHT22;6091;51.432;6.880;2023-02-01T16:10:46;24.80;33.00
12060;DHT22;6091;51.432;6.880;2023-02-01T16:13:17;24.90;33.00
12060;DHT22;6091;51.432;6.880;2023-02-01T16:15:46;24.90;33.10
12060;DHT22;6091;51.432;6.880;2023-02-01T16:18:15;25.00;33.00
12060;DHT22;6091;51.432;6.880;2023-02-01T16:20:47;25.00;33.20
12060;DHT22;6091;51.432;6.880;2023-02-01T16:23:15;25.10;33.10
12060;DHT22;6091;51.432;6.880;2023-02-01T16:25:42;25.10;33.00
12060;DHT22;6091;51.432;6.880;2023-02-01T16:28:09;25.10;33.00
12060;DHT22;6091;51.432;6.880;2023-02-01T16:30:39;25.10;32.80
12060;DHT22;6091;51.432;6.880;2023-02-01T16:33:13;25.10;32.80
12060;DHT22;6091;51.432;6.880;2023-02-01T16:35:46;25.20;32.90
12060;DHT22;6091;51.432;6.880;2023-02-01T16:38:15;25.20;32.80
12060;DHT22;6091;51.432;6.880;2023-02-01T16:40:46;25.20;32.80
12060;DHT22;6091;51.432;6.880;2023-02-01T16:43:25;25.20;32.80
12060;DHT22;6091;51.432;6.880;2023-02-01T16:45:54;25.20;32.60
12060;DHT22;6091;51.432;6.880;2023-02-01T16:48:30;25.20;32.80
12060;DHT22;6091;51.432;6.880;2023-02-01T16:51:13;25.20;32.80
12060;DHT22;6091;51.432;6.880;2023-02-01T16:53:45;25.10;32.60
12060;DHT22;6091;51.432;6.880;2023-02-01T16:56:23;25.20;32.60
12060;DHT22;6091;51.432;6.880;2023-02-01T16:58:55;25.20;32.80
12060;DHT22;6091;51.432;6.880;2023-02-01T17:01:23;25.00;32.60
12060;DHT22;6091;51.432;6.880;2023-02-01T17:03:51;25.00;32.60
12060;DHT22;6091;51.432;6.880;2023-02-01T17:06:21;25.00;32.60
12060;DHT22;6091;51.432;6.880;2023-02-01T17:09:00;25.00;32.70
12060;DHT22;6091;51.432;6.880;2023-02-01T17:11:29;25.00;32.60
12060;DHT22;6091;51.432;6.880;2023-02-01T17:14:20;24.30;32.00
12060;DHT22;6091;51.432;6.880;2023-02-01T17:16:49;24.90;32.70
12060;DHT22;6091;51.432;6.880;2023-02-01T17:19:21;24.90;32.70
12060;DHT22;6091;51.432;6.880;2023-02-01T17:21:54;24.90;32.70
12060;DHT22;6091;51.432;6.880;2023-02-01T17:24:28;24.80;32.60
12060;DHT22;6091;51.432;6.880;2023-02-01T17:27:14;24.80;32.60
12060;DHT22;6091;51.432;6.880;2023-02-01T17:29:43;24.10;32.60
12060;DHT22;6091;51.432;6.880;2023-02-01T17:32:20;24.50;33.00
12060;DHT22;6091;51.432;6.880;2023-02-01T17:34:50;24.50;32.90
12060;DHT22;6091;51.432;6.880;2023-02-01T17:37:29;24.60;33.00
12060;DHT22;6091;51.432;6.880;2023-02-01T17:40:01;24.50;32.90
12060;DHT22;6091;51.432;6.880;2023-02-01T17:42:29;24.50;32.70
12060;DHT22;6091;51.432;6.880;2023-02-01T17:45:01;24.50;32.80
12060;DHT22;6091;51.432;6.880;2023-02-01T17:47:45;24.50;32.90
12060;DHT22;6091;51.432;6.880;2023-02-01T17:50:13;24.50;32.80
12060;DHT22;6091;51.432;6.880;2023-02-01T17:52:41;24.40;33.00
12060;DHT22;6091;51.432;6.880;2023-02-01T17:55:21;24.40;32.90
12060;DHT22;6091;51.432;6.880;2023-02-01T17:57:51;24.40;33.10
12060;DHT22;6091;51.432;6.880;2023-02-01T18:00:19;24.30;32.90
12060;DHT22;6091;51.432;6.880;2023-02-01T18:02:49;24.50;33.20
12060;DHT22;6091;51.432;6.880;2023-02-01T18:05:30;24.20;32.90
12060;DHT22;6091;51.432;6.880;2023-02-01T18:08:04;24.20;33.20
12060;DHT22;6091;51.432;6.880;2023-02-01T18:10:37;24.20;33.10
12060;DHT22;6091;51.432;6.880;2023-02-01T18:13:05;24.10;33.10
12060;DHT22;6091;51.432;6.880;2023-02-01T18:15:33;24.10;33.10
12060;DHT22;6091;51.432;6.880;2023-02-01T18:18:00;24.00;33.10
12060;DHT22;6091;51.432;6.880;2023-02-01T18:20:27;24.00;33.20
12060;DHT22;6091;51.432;6.880;2023-02-01T18:22:57;24.00;33.30
12060;DHT22;6091;51.432;6.880;2023-02-01T18:25:27;23.90;33.20
12060;DHT22;6091;51.432;6.880;2023-02-01T18:27:58;23.80;33.30
12060;DHT22;6091;51.432;6.880;2023-02-01T18:30:29;23.80;33.20
12060;DHT22;6091;51.432;6.880;2023-02-01T18:32:58;23.80;33.40